createdAt,value
2019-05-29T00:01:31.873Z,17.20
2019-05-29T00:04:45.568Z,16.77
2019-05-29T00:07:59.090Z,15.53
2019-05-29T00:11:12.700Z,17.47
2019-05-29T00:14:27.581Z,17.77
2019-05-29T00:17:41.455Z,17.70
2019-05-29T00:20:54.970Z,17.93
2019-05-29T00:24:08.842Z,16.73
2019-05-29T00:27:22.369Z,16.30
2019-05-29T00:30:35.987Z,16.07
2019-05-29T00:33:49.815Z,16.27
2019-05-29T00:37:03.414Z,16.53
2019-05-29T00:40:17.237Z,17.00
2019-05-29T00:43:30.742Z,16.53
2019-05-29T00:46:44.245Z,16.00
2019-05-29T00:49:58.191Z,15.07
2019-05-29T00:53:12.200Z,16.17
2019-05-29T00:56:25.697Z,15.13
2019-05-29T00:59:39.319Z,15.10
2019-05-29T01:02:52.854Z,14.47
2019-05-29T01:06:06.357Z,14.47
2019-05-29T01:09:20.760Z,15.37
2019-05-29T01:12:34.701Z,13.87
2019-05-29T01:15:48.207Z,13.30
2019-05-29T01:19:20.348Z,12.50
2019-05-29T01:22:33.891Z,12.33
2019-05-29T01:25:47.497Z,12.77
2019-05-29T01:29:01.015Z,11.87
2019-05-29T01:32:15.501Z,12.03
2019-05-29T01:35:29.228Z,11.37
2019-05-29T01:38:43.262Z,12.63
2019-05-29T01:41:57.061Z,12.70
2019-05-29T01:45:11.085Z,12.00
2019-05-29T01:48:24.718Z,11.67
2019-05-29T01:51:38.423Z,10.53
2019-05-29T01:54:52.021Z,10.73
2019-05-29T01:58:05.631Z,10.30
2019-05-29T02:01:19.895Z,9.27
2019-05-29T02:04:33.838Z,10.27
2019-05-29T02:07:47.319Z,9.87
2019-05-29T02:11:00.818Z,10.13
2019-05-29T02:14:14.342Z,9.43
2019-05-29T02:17:28.052Z,9.13
2019-05-29T02:20:41.770Z,10.00
2019-05-29T02:23:55.271Z,9.97
2019-05-29T02:27:08.734Z,10.33
2019-05-29T02:30:26.057Z,9.70
2019-05-29T02:33:38.830Z,9.30
2019-05-29T02:36:52.310Z,9.20
2019-05-29T02:40:07.440Z,9.73
2019-05-29T02:43:21.409Z,9.60
2019-05-29T02:46:36.506Z,8.80
2019-05-29T02:49:50.029Z,7.70
2019-05-29T02:53:04.749Z,8.10
2019-05-29T02:56:18.247Z,7.90
2019-05-29T02:59:32.248Z,7.27
2019-05-29T03:02:45.914Z,7.40
2019-05-29T03:05:59.414Z,6.70
2019-05-29T03:09:13.037Z,7.40
2019-05-29T03:12:27.091Z,7.20
2019-05-29T03:15:40.983Z,7.47
2019-05-29T03:18:54.499Z,6.50
2019-05-29T03:22:07.971Z,7.17
2019-05-29T03:25:21.574Z,6.87
2019-05-29T03:28:35.425Z,7.30
2019-05-29T03:31:49.108Z,9.03
2019-05-29T03:35:03.218Z,8.63
2019-05-29T03:38:16.937Z,8.00
2019-05-29T03:41:30.458Z,6.73
2019-05-29T03:44:44.239Z,8.47
2019-05-29T03:47:57.905Z,7.77
2019-05-29T03:51:11.550Z,8.00
2019-05-29T03:54:26.683Z,7.67
2019-05-29T03:57:40.529Z,8.30
2019-05-29T04:00:54.037Z,6.60
2019-05-29T04:04:07.550Z,6.90
2019-05-29T04:07:21.025Z,8.57
2019-05-29T04:10:37.021Z,7.63
2019-05-29T04:13:50.019Z,6.67
2019-05-29T04:17:05.354Z,6.50
2019-05-29T04:20:19.004Z,7.50
2019-05-29T04:23:34.040Z,7.33
2019-05-29T04:26:49.997Z,8.00
2019-05-29T04:30:05.299Z,7.57
2019-05-29T04:33:18.804Z,6.97
2019-05-29T04:36:33.032Z,7.77
2019-05-29T04:39:47.945Z,6.80
2019-05-29T04:43:01.419Z,6.40
2019-05-29T04:46:15.038Z,6.57
2019-05-29T04:49:29.464Z,6.53
2019-05-29T04:52:44.982Z,7.10
2019-05-29T04:56:01.957Z,7.07
2019-05-29T04:59:15.470Z,7.63
2019-05-29T05:02:28.993Z,6.53
2019-05-29T05:05:42.503Z,6.87
2019-05-29T05:08:56.171Z,6.73
2019-05-29T05:12:10.221Z,6.40
2019-05-29T05:16:39.984Z,6.80
2019-05-29T05:19:53.486Z,6.20
2019-05-29T05:23:07.007Z,6.00
2019-05-29T05:26:20.606Z,6.60
2019-05-29T05:29:34.195Z,6.40
2019-05-29T05:32:47.952Z,6.60
2019-05-29T05:36:01.981Z,7.07
2019-05-29T05:39:15.896Z,6.43
2019-05-29T05:42:31.004Z,6.97
2019-05-29T05:45:44.617Z,6.90
2019-05-29T05:48:58.573Z,6.87
2019-05-29T05:52:12.341Z,7.00
2019-05-29T05:55:26.018Z,6.40
2019-05-29T05:58:39.985Z,6.63
2019-05-29T06:01:53.592Z,6.60
2019-05-29T06:05:07.328Z,6.33
2019-05-29T06:08:20.812Z,6.10
2019-05-29T06:11:34.545Z,6.23
2019-05-29T06:14:48.022Z,6.33
2019-05-29T06:18:19.959Z,6.37
2019-05-29T06:21:16.958Z,6.37
2019-05-29T06:24:30.442Z,6.10
2019-05-29T06:27:44.307Z,6.40
2019-05-29T06:30:57.937Z,5.77
2019-05-29T06:34:11.544Z,6.00
2019-05-29T06:37:25.055Z,5.57
2019-05-29T06:40:40.228Z,5.67
2019-05-29T06:43:53.863Z,5.20
2019-05-29T06:47:07.433Z,5.57
2019-05-29T06:50:21.050Z,4.90
2019-05-29T06:53:35.710Z,5.83
2019-05-29T06:56:49.334Z,5.23
2019-05-29T07:00:04.189Z,5.23
2019-05-29T07:03:17.991Z,5.23
2019-05-29T07:06:31.657Z,4.93
2019-05-29T07:09:45.289Z,5.10
2019-05-29T07:12:58.997Z,5.23
2019-05-29T07:16:12.622Z,5.63
2019-05-29T07:19:45.129Z,4.57
2019-05-29T07:22:42.997Z,4.33
2019-05-29T07:25:56.718Z,4.00
2019-05-29T07:29:10.230Z,4.40
2019-05-29T07:32:23.741Z,4.00
2019-05-29T07:35:37.533Z,3.80
2019-05-29T07:39:02.624Z,3.73
2019-05-29T07:42:06.434Z,3.43
2019-05-29T07:45:20.115Z,3.70
2019-05-29T07:48:33.601Z,3.33
2019-05-29T07:51:47.529Z,3.53
2019-05-29T07:55:02.238Z,3.87
2019-05-29T07:58:15.840Z,3.50
2019-05-29T08:01:30.552Z,3.83
2019-05-29T08:04:45.184Z,3.70
2019-05-29T08:07:58.854Z,3.37
2019-05-29T08:11:12.433Z,4.07
2019-05-29T08:14:26.213Z,3.70
2019-05-29T08:17:40.056Z,3.63
2019-05-29T08:20:53.607Z,3.67
2019-05-29T08:24:07.134Z,4.00
2019-05-29T08:27:21.018Z,3.63
2019-05-29T08:30:34.538Z,3.50
2019-05-29T08:33:48.971Z,3.47
2019-05-29T08:37:07.154Z,3.50
2019-05-29T08:40:18.962Z,2.63
2019-05-29T08:43:32.781Z,3.20
2019-05-29T08:47:08.214Z,2.20
2019-05-29T08:50:17.245Z,2.37
2019-05-29T08:53:17.466Z,2.70
2019-05-29T08:56:31.971Z,2.37
2019-05-29T08:59:46.382Z,2.80
2019-05-29T09:03:00.525Z,2.40
2019-05-29T09:06:14.578Z,2.50
2019-05-29T09:09:28.239Z,2.10
2019-05-29T09:12:45.913Z,2.40
2019-05-29T09:15:58.108Z,1.93
2019-05-29T09:19:12.132Z,2.20
2019-05-29T09:22:25.733Z,2.37
2019-05-29T09:25:39.252Z,2.20
2019-05-29T09:28:53.210Z,1.90
2019-05-29T09:32:07.013Z,1.50
2019-05-29T09:35:21.966Z,2.20
2019-05-29T09:38:36.115Z,1.83
2019-05-29T09:41:50.116Z,1.37
2019-05-29T09:45:04.920Z,1.63
2019-05-29T09:48:23.321Z,2.10
2019-05-29T09:51:35.754Z,1.80
2019-05-29T09:54:49.984Z,1.90
2019-05-29T09:58:04.513Z,1.70
2019-05-29T10:01:23.944Z,2.10
2019-05-29T10:04:33.794Z,1.93
2019-05-29T10:07:47.920Z,1.90
2019-05-29T10:11:08.691Z,2.13
2019-05-29T10:14:17.115Z,1.87
2019-05-29T10:17:30.833Z,2.00
2019-05-29T10:20:44.606Z,1.90
2019-05-29T10:23:59.590Z,1.87
2019-05-29T10:27:13.269Z,1.70
2019-05-29T10:30:27.438Z,1.80
2019-05-29T10:33:42.383Z,1.83
2019-05-29T10:36:55.940Z,1.87
2019-05-29T10:40:09.954Z,2.33
2019-05-29T10:43:33.611Z,2.20
2019-05-29T10:46:38.973Z,2.10
2019-05-29T10:49:53.779Z,2.00
2019-05-29T10:53:07.661Z,2.17
2019-05-29T10:56:21.782Z,2.53
2019-05-29T10:59:35.601Z,2.00
2019-05-29T11:02:50.171Z,1.93
2019-05-29T11:06:04.962Z,2.00
2019-05-29T11:09:18.903Z,2.10
2019-05-29T11:12:32.697Z,2.70
2019-05-29T11:15:46.517Z,2.20
2019-05-29T11:19:00.027Z,2.13
2019-05-29T11:22:25.620Z,2.30
2019-05-29T11:25:30.348Z,2.30
2019-05-29T11:28:48.365Z,1.97
2019-05-29T11:32:05.339Z,2.10
2019-05-29T11:35:19.723Z,2.10
2019-05-29T11:38:35.980Z,1.73
2019-05-29T11:41:50.562Z,1.87
2019-05-29T11:45:06.356Z,1.90
2019-05-29T11:48:20.445Z,1.63
2019-05-29T11:51:34.510Z,2.00
2019-05-29T11:54:48.771Z,2.10
2019-05-29T11:58:03.291Z,1.97
2019-05-29T12:01:20.763Z,1.97
2019-05-29T12:04:37.141Z,1.50
2019-05-29T12:07:53.323Z,1.50
2019-05-29T12:11:07.873Z,1.47
2019-05-29T12:16:40.649Z,1.47
2019-05-29T12:19:56.061Z,1.20
2019-05-29T12:23:25.074Z,1.23
2019-05-29T12:26:26.827Z,1.30
2019-05-29T12:29:43.295Z,1.30
2019-05-29T12:36:31.237Z,1.80
2019-05-29T12:39:45.629Z,1.20
2019-05-29T12:43:00.148Z,1.13
2019-05-29T12:46:14.215Z,1.30
2019-05-29T12:49:28.099Z,1.20
2019-05-29T12:52:42.363Z,1.10
2019-05-29T12:55:56.332Z,1.10
2019-05-29T12:59:09.835Z,1.40
2019-05-29T13:02:23.479Z,1.33
2019-05-29T13:05:37.137Z,1.30
2019-05-29T13:08:50.683Z,1.80
2019-05-29T13:12:04.856Z,1.93
2019-05-29T13:15:18.693Z,1.77
2019-05-29T13:18:33.119Z,1.80
2019-05-29T13:21:46.949Z,1.80
2019-05-29T13:25:01.286Z,1.80
2019-05-29T13:28:14.885Z,1.43
2019-05-29T13:31:28.800Z,1.40
2019-05-29T13:34:42.509Z,1.33
2019-05-29T13:37:56.922Z,1.03
2019-05-29T13:41:10.588Z,1.17
2019-05-29T13:44:24.104Z,1.10
2019-05-29T13:47:37.769Z,1.40
2019-05-29T13:50:51.506Z,1.17
2019-05-29T13:54:13.199Z,1.30
2019-05-29T13:57:20.702Z,1.20
2019-05-29T14:00:35.159Z,1.17
2019-05-29T14:03:50.657Z,1.30
2019-05-29T14:07:05.044Z,1.17
2019-05-29T14:10:19.127Z,1.27
2019-05-29T14:13:32.996Z,1.30
2019-05-29T14:16:46.753Z,1.30
2019-05-29T14:20:00.669Z,1.23
2019-05-29T14:23:14.314Z,1.03
2019-05-29T14:26:27.852Z,1.30
2019-05-29T14:29:41.384Z,1.30
2019-05-29T14:32:54.877Z,1.10
2019-05-29T14:36:09.305Z,1.40
2019-05-29T14:39:23.013Z,1.20
2019-05-29T14:42:36.709Z,1.40
2019-05-29T14:45:50.353Z,1.00
2019-05-29T14:49:04.376Z,1.20
2019-05-29T14:52:18.007Z,1.40
2019-05-29T14:55:31.689Z,1.10
2019-05-29T14:58:45.331Z,1.10
2019-05-29T15:01:58.875Z,0.97
2019-05-29T15:05:15.112Z,1.13
2019-05-29T15:08:28.737Z,1.20
2019-05-29T15:11:42.261Z,1.30
2019-05-29T15:14:56.128Z,1.10
2019-05-29T15:18:13.685Z,1.17
2019-05-29T15:21:25.149Z,1.10
2019-05-29T15:24:39.016Z,1.00
2019-05-29T15:27:52.540Z,1.20
2019-05-29T15:31:06.362Z,0.90
2019-05-29T15:34:20.265Z,0.77
2019-05-29T15:37:34.181Z,1.00
2019-05-29T15:40:47.722Z,1.10
2019-05-29T15:44:01.725Z,0.83
2019-05-29T15:47:15.419Z,1.17
2019-05-29T15:50:29.081Z,1.00
2019-05-29T15:53:42.846Z,1.03
2019-05-29T15:56:56.729Z,1.10
2019-05-29T16:00:11.407Z,1.20
2019-05-29T16:03:25.345Z,1.30
2019-05-29T16:06:38.826Z,1.43
2019-05-29T16:09:52.330Z,1.23
2019-05-29T16:13:05.953Z,1.10
2019-05-29T16:16:19.434Z,1.13
2019-05-29T16:19:32.950Z,1.00
2019-05-29T16:22:46.487Z,0.97
2019-05-29T16:26:00.760Z,1.30
2019-05-29T16:29:16.407Z,1.20
2019-05-29T16:32:30.088Z,1.10
2019-05-29T16:35:44.077Z,0.87
2019-05-29T16:38:57.655Z,1.20
2019-05-29T16:42:11.880Z,1.03
2019-05-29T16:45:25.713Z,1.10
2019-05-29T16:48:39.376Z,1.20
2019-05-29T16:51:53.018Z,0.93
2019-05-29T16:55:06.881Z,1.10
2019-05-29T16:58:21.294Z,1.30
2019-05-29T17:01:34.934Z,1.30
2019-05-29T17:04:48.656Z,1.30
2019-05-29T17:08:02.606Z,1.20
2019-05-29T17:11:16.375Z,1.00
2019-05-29T17:14:30.095Z,1.90
2019-05-29T17:17:43.849Z,1.20
2019-05-29T17:20:57.401Z,0.80
2019-05-29T17:24:11.087Z,1.20
2019-05-29T17:27:25.131Z,1.40
2019-05-29T17:30:39.080Z,1.30
2019-05-29T17:33:52.870Z,1.20
2019-05-29T17:37:06.688Z,1.10
2019-05-29T17:40:21.474Z,1.27
2019-05-29T17:43:35.582Z,1.20
2019-05-29T17:46:49.338Z,1.20
2019-05-29T17:50:04.664Z,1.00
2019-05-29T17:53:18.290Z,0.80
2019-05-29T17:56:36.720Z,1.10
2019-05-29T17:59:47.798Z,1.13
2019-05-29T18:03:01.544Z,0.90
2019-05-29T18:06:16.236Z,0.90
2019-05-29T18:09:30.495Z,1.10
2019-05-29T18:12:44.115Z,0.90
2019-05-29T18:15:58.177Z,0.90
2019-05-29T18:19:11.680Z,0.90
2019-05-29T18:22:25.716Z,0.87
2019-05-29T18:25:39.346Z,0.83
2019-05-29T18:28:53.246Z,1.00
2019-05-29T18:32:06.998Z,1.10
2019-05-29T18:35:20.833Z,1.20
2019-05-29T18:38:34.525Z,0.90
2019-05-29T18:41:48.132Z,1.10
2019-05-29T18:45:02.236Z,1.23
2019-05-29T18:48:15.911Z,1.03
2019-05-29T18:51:29.390Z,1.00
2019-05-29T18:54:42.930Z,1.17
2019-05-29T18:57:56.444Z,3.07
2019-05-29T19:01:10.042Z,2.60
2019-05-29T19:04:23.653Z,2.10
2019-05-29T19:07:37.245Z,1.10
2019-05-29T19:10:51.162Z,1.13
2019-05-29T19:14:04.959Z,2.63
2019-05-29T19:17:18.561Z,2.83
2019-05-29T19:20:32.603Z,1.60
2019-05-29T19:23:46.152Z,3.37
2019-05-29T19:27:00.047Z,1.80
2019-05-29T19:30:15.365Z,4.97
2019-05-29T19:33:29.382Z,2.13
2019-05-29T19:36:43.041Z,1.47
2019-05-29T19:39:56.560Z,2.20
2019-05-29T19:43:10.062Z,1.83
2019-05-29T19:46:24.471Z,1.80
2019-05-29T19:49:38.171Z,1.53
2019-05-29T19:52:52.282Z,1.70
2019-05-29T19:56:06.356Z,1.80
2019-05-29T19:59:20.202Z,2.00
2019-05-29T20:02:34.672Z,2.00
2019-05-29T20:05:48.302Z,1.53
2019-05-29T20:09:04.831Z,1.90
2019-05-29T20:12:18.400Z,1.83
2019-05-29T20:15:36.440Z,2.00
2019-05-29T20:18:50.063Z,2.10
2019-05-29T20:22:05.168Z,2.03
2019-05-29T20:25:21.557Z,2.50
2019-05-29T20:28:36.128Z,2.60
2019-05-29T20:31:49.912Z,3.80
2019-05-29T20:35:03.843Z,2.60
2019-05-29T20:38:17.330Z,2.20
2019-05-29T20:41:34.095Z,3.30
2019-05-29T20:44:46.620Z,2.23
2019-05-29T20:48:00.353Z,2.30
2019-05-29T20:51:14.181Z,2.27
2019-05-29T20:54:27.682Z,2.67
2019-05-29T20:57:42.171Z,2.20
2019-05-29T21:00:55.772Z,2.17
2019-05-29T21:04:09.258Z,2.50
2019-05-29T21:07:22.810Z,3.03
2019-05-29T21:10:37.213Z,2.30
2019-05-29T21:16:39.803Z,2.87
2019-05-29T21:19:53.478Z,2.43
2019-05-29T21:23:06.945Z,2.37
2019-05-29T21:26:20.685Z,2.77
2019-05-29T21:29:35.171Z,2.90
2019-05-29T21:32:48.806Z,2.70
2019-05-29T21:36:02.366Z,2.97
2019-05-29T21:39:15.875Z,2.50
2019-05-29T21:42:29.357Z,2.47
2019-05-29T21:45:43.176Z,2.87
2019-05-29T21:48:56.632Z,2.90
2019-05-29T21:52:10.128Z,2.60
2019-05-29T21:55:23.714Z,2.70
2019-05-29T21:58:37.553Z,3.00
2019-05-29T22:01:51.418Z,2.70
2019-05-29T22:05:06.403Z,2.80
2019-05-29T22:08:20.094Z,2.87
2019-05-29T22:11:33.694Z,3.40
2019-05-29T22:14:47.962Z,3.03
2019-05-29T22:18:01.584Z,2.90
2019-05-29T22:21:15.185Z,3.40
2019-05-29T22:24:28.670Z,2.90
2019-05-29T22:27:42.164Z,2.60
2019-05-29T22:30:55.763Z,2.87
2019-05-29T22:34:09.244Z,2.73
2019-05-29T22:37:22.860Z,3.20
2019-05-29T22:40:36.770Z,2.90
2019-05-29T22:43:51.378Z,3.20
2019-05-29T22:47:05.150Z,2.90
2019-05-29T22:50:18.741Z,2.83
2019-05-29T22:53:32.323Z,2.53
2019-05-29T22:56:45.816Z,3.30
2019-05-29T23:00:00.089Z,3.40
2019-05-29T23:03:14.038Z,2.40
2019-05-29T23:06:27.547Z,3.00
2019-05-29T23:09:41.024Z,3.40
2019-05-29T23:12:56.181Z,3.00
2019-05-29T23:16:10.077Z,3.10
2019-05-29T23:19:23.582Z,3.27
2019-05-29T23:22:37.179Z,2.73
2019-05-29T23:25:50.650Z,2.80
2019-05-29T23:29:04.274Z,3.00
2019-05-29T23:32:20.232Z,2.83
2019-05-29T23:35:33.724Z,2.83
2019-05-29T23:38:47.214Z,2.53
2019-05-29T23:42:01.577Z,3.10
2019-05-29T23:45:15.286Z,2.90
2019-05-29T23:48:28.765Z,2.50
2019-05-29T23:51:42.650Z,3.37
2019-05-29T23:54:56.166Z,2.80
2019-05-29T23:58:09.740Z,2.97
